Archbold, Ohio
Current Conditions -  °F | °C
As of 6:55 PM on Saturday 25 Oct 2014 (Local Time) from KUSE Reporting Station
Clear Clear  
Wind Chill: 61°   Ceiling: Unl
Heat Index: 61°   Visibility: 10mi
Dew Point: 30°   Wind: 10mph
Humidity: 31%   Direction: 280°W
Pressure: 29.82"   Gusts: 16mph
Location:  41.52°N, 84.31°W
Report Text: KUSE 252255Z AUTO 28009G14KT 10SM CLR 16/M01 A2982 RMK AO2
Loading
Personal Weather Stations






























Interactive Weather Map New forecast layout! Learn more

10-Day Weather Forecast

Advertisements
Track Severe Weather on mobile